createdAt,value
2019-06-27T00:02:20.343Z,"    0"
2019-06-27T00:07:17.429Z,"    0"
2019-06-27T00:12:14.121Z,"    0"
2019-06-27T00:17:09.545Z,"    0"
2019-06-27T00:22:06.432Z,"    0"
2019-06-27T00:27:01.818Z,"    0"
2019-06-27T00:31:57.782Z,"    0"
2019-06-27T00:36:54.504Z,"    0"
2019-06-27T00:41:49.917Z,"    0"
2019-06-27T00:46:45.735Z,"    0"
2019-06-27T00:51:45.227Z,"    0"
2019-06-27T00:56:40.404Z,"    0"
2019-06-27T01:01:36.276Z,"    0"
2019-06-27T01:06:32.530Z,"    0"
2019-06-27T01:11:28.273Z,"    0"
2019-06-27T01:16:24.349Z,"    0"
2019-06-27T01:21:21.234Z,"    0"
2019-06-27T01:26:16.768Z,"    0"
2019-06-27T01:31:12.710Z,"    0"
2019-06-27T01:36:08.552Z,"    0"
2019-06-27T01:41:04.334Z,"    0"
2019-06-27T01:46:00.025Z,"    0"
2019-06-27T01:50:57.065Z,"    0"
2019-06-27T01:55:52.695Z,"    0"
2019-06-27T02:00:48.411Z,"    0"
2019-06-27T02:05:44.097Z,"    0"
2019-06-27T02:10:40.103Z,"    0"
2019-06-27T02:15:37.026Z,"    0"
2019-06-27T02:20:32.700Z,"    0"
2019-06-27T02:25:28.479Z,"    0"
2019-06-27T02:30:24.203Z,"    0"
2019-06-27T02:35:20.446Z,"    0"
2019-06-27T02:40:16.242Z,"    0"
2019-06-27T02:45:11.696Z,"    0"
2019-06-27T02:50:07.522Z,"    0"
2019-06-27T02:55:03.333Z,"    0"
2019-06-27T02:59:58.678Z,"    0"
2019-06-27T03:04:54.834Z,"    0"
2019-06-27T03:09:50.910Z,"    0"
2019-06-27T03:14:46.745Z,"    0"
2019-06-27T03:19:42.476Z,"    5"
2019-06-27T03:24:39.472Z,"    5"
2019-06-27T03:29:35.115Z,"    5"
2019-06-27T03:34:31.133Z,"   10"
2019-06-27T03:39:26.965Z,"   10"
2019-06-27T03:44:22.840Z,"   10"
2019-06-27T03:49:18.626Z,"   10"
2019-06-27T03:54:14.629Z,"   15"
2019-06-27T03:59:13.655Z,"   20"
2019-06-27T04:04:08.868Z,"   25"
2019-06-27T04:09:05.702Z,"   30"
2019-06-27T04:14:02.949Z,"   30"
2019-06-27T04:18:58.477Z,"   40"
2019-06-27T04:23:54.165Z,"   55"
2019-06-27T04:28:50.507Z,"   70"
2019-06-27T04:33:47.773Z,"   75"
2019-06-27T04:38:43.089Z,"   85"
2019-06-27T04:43:38.979Z,"   70"
2019-06-27T04:48:34.964Z,"   65"
2019-06-27T04:53:31.604Z,"   60"
2019-06-27T04:58:27.996Z,"   60"
2019-06-27T05:03:23.451Z,"   80"
2019-06-27T05:08:19.455Z,"  115"
2019-06-27T05:13:16.946Z,"  500"
2019-06-27T05:18:14.210Z,"  205"
2019-06-27T05:23:10.652Z,"  555"
2019-06-27T05:28:07.309Z,"  165"
2019-06-27T05:33:03.315Z,"  140"
2019-06-27T05:38:00.157Z,"  315"
2019-06-27T05:42:56.492Z,"  390"
2019-06-27T05:47:54.295Z,"  645"
2019-06-27T05:52:53.766Z,"  385"
2019-06-27T05:57:50.932Z,"  230"
2019-06-27T06:02:45.382Z,"  205"
2019-06-27T06:07:40.226Z,"  230"
2019-06-27T06:12:36.625Z,"  240"
2019-06-27T06:17:32.968Z,"  230"
2019-06-27T06:22:28.482Z,"  215"
2019-06-27T06:27:25.069Z,"  220"
2019-06-27T06:32:20.650Z,"  215"
2019-06-27T06:37:16.977Z,"  175"
2019-06-27T06:42:12.277Z,"  135"
2019-06-27T06:47:07.279Z,"  145"
2019-06-27T06:52:02.698Z,"  130"
2019-06-27T06:56:58.068Z,"  130"
2019-06-27T07:01:53.487Z,"  135"
2019-06-27T07:06:48.843Z,"  135"
2019-06-27T07:11:44.872Z,"  125"
2019-06-27T07:16:41.748Z,"  130"
2019-06-27T07:21:37.146Z,"  135"
2019-06-27T07:26:33.371Z,"  130"
2019-06-27T07:31:29.779Z,"  140"
2019-06-27T07:36:25.715Z,"  170"
2019-06-27T07:41:22.126Z,"  145"
2019-06-27T07:46:24.985Z,"  170"
2019-06-27T07:51:19.226Z," 1260"
2019-06-27T07:56:19.567Z," 1310"
2019-06-27T08:01:34.006Z," 1160"
2019-06-27T08:06:19.602Z," 1180"
2019-06-27T08:11:16.002Z," 1210"
2019-06-27T08:16:13.677Z," 1470"
2019-06-27T08:21:10.154Z," 1425"
2019-06-27T08:26:08.464Z," 1560"
2019-06-27T08:31:05.483Z," 1525"
2019-06-27T08:36:01.745Z," 1420"
2019-06-27T08:40:58.014Z," 1560"
2019-06-27T08:45:53.692Z," 1505"
2019-06-27T08:50:50.336Z," 1535"
2019-06-27T08:55:46.962Z," 1555"
2019-06-27T09:00:45.849Z," 1460"
2019-06-27T09:05:41.909Z," 1515"
2019-06-27T09:10:38.260Z," 1500"
2019-06-27T09:15:35.213Z," 1570"
2019-06-27T09:20:31.456Z," 1655"
2019-06-27T09:25:28.190Z," 1530"
2019-06-27T09:30:24.930Z," 1670"
2019-06-27T09:35:21.379Z," 1535"
2019-06-27T09:40:17.708Z," 1640"
2019-06-27T09:45:14.057Z," 1650"
2019-06-27T09:50:11.115Z," 1525"
2019-06-27T09:55:06.934Z," 1705"
2019-06-27T10:00:02.669Z," 1785"
2019-06-27T10:04:57.754Z," 1650"
2019-06-27T10:09:53.577Z," 1745"
2019-06-27T10:14:49.998Z," 1780"
2019-06-27T10:19:47.423Z," 1785"
2019-06-27T10:24:43.391Z," 1845"
2019-06-27T10:29:39.790Z," 1985"
2019-06-27T10:34:36.367Z," 1925"
2019-06-27T10:39:33.453Z," 1950"
2019-06-27T10:44:29.187Z," 1740"
2019-06-27T10:49:25.709Z," 1880"
2019-06-27T10:54:21.539Z," 1830"
2019-06-27T10:59:17.467Z," 1825"
2019-06-27T11:04:13.766Z," 1980"
2019-06-27T11:09:10.249Z," 1940"
2019-06-27T11:14:07.452Z," 1920"
2019-06-27T11:19:04.143Z," 1935"
2019-06-27T11:24:01.277Z," 1965"
2019-06-27T11:28:57.490Z," 1985"
2019-06-27T11:33:54.013Z," 1925"
2019-06-27T11:38:51.346Z," 2165"
2019-06-27T11:43:48.405Z," 1835"
2019-06-27T11:48:44.224Z," 1875"
2019-06-27T11:53:40.491Z," 1930"
2019-06-27T11:58:36.869Z," 1875"
2019-06-27T12:03:48.206Z," 1920"
2019-06-27T12:08:32.442Z," 1885"
2019-06-27T12:13:29.323Z," 1980"
2019-06-27T12:18:24.969Z," 1790"
2019-06-27T12:23:22.201Z," 1805"
2019-06-27T12:28:17.847Z," 1860"
2019-06-27T12:33:14.325Z," 2010"
2019-06-27T12:38:08.698Z," 1905"
2019-06-27T12:43:03.880Z," 2015"
2019-06-27T12:48:06.679Z," 2045"
2019-06-27T12:53:00.223Z," 1990"
2019-06-27T12:57:57.135Z," 1860"
2019-06-27T13:02:52.656Z," 2000"
2019-06-27T13:07:48.108Z," 1880"
2019-06-27T13:12:43.699Z," 1680"
2019-06-27T13:17:39.536Z," 1890"
2019-06-27T13:22:34.954Z," 1890"
2019-06-27T13:27:30.978Z," 1955"
2019-06-27T13:32:27.184Z," 1795"
2019-06-27T13:37:23.192Z," 1735"
2019-06-27T13:42:19.019Z," 1775"
2019-06-27T13:47:15.199Z," 1845"
2019-06-27T13:52:11.002Z," 1880"
2019-06-27T13:57:07.669Z," 1740"
2019-06-27T14:02:03.129Z,"  520"
2019-06-27T14:06:59.070Z,"  110"
2019-06-27T14:11:54.245Z,"  105"
2019-06-27T14:16:49.618Z,"  105"
2019-06-27T14:21:45.062Z,"  105"
2019-06-27T14:26:40.698Z,"  105"
2019-06-27T14:31:36.212Z,"  105"
2019-06-27T14:36:31.770Z,"  105"
2019-06-27T14:41:27.593Z,"  105"
2019-06-27T14:46:23.413Z,"   95"
2019-06-27T14:51:19.936Z,"   95"
2019-06-27T14:56:15.686Z,"   95"
2019-06-27T15:01:11.549Z,"   95"
2019-06-27T15:06:07.515Z,"   90"
2019-06-27T15:11:03.343Z,"   90"
2019-06-27T15:16:11.154Z,"   90"
2019-06-27T15:20:58.768Z,"   85"
2019-06-27T15:25:54.726Z,"   85"
2019-06-27T15:30:50.337Z,"   85"
2019-06-27T15:35:52.204Z,"   85"
2019-06-27T15:40:46.524Z,"   85"
2019-06-27T15:45:42.481Z,"   80"
2019-06-27T15:50:39.168Z,"   80"
2019-06-27T15:55:34.511Z,"   80"
2019-06-27T16:00:30.418Z,"   80"
2019-06-27T16:05:26.671Z,"   80"
2019-06-27T16:10:22.921Z,"   80"
2019-06-27T16:15:18.846Z,"   80"
2019-06-27T16:20:14.889Z,"   75"
2019-06-27T16:25:11.831Z,"   75"
2019-06-27T16:30:07.380Z,"   75"
2019-06-27T16:35:03.267Z,"   75"
2019-06-27T16:39:59.186Z,"   75"
2019-06-27T16:44:55.417Z,"   75"
2019-06-27T16:49:52.490Z,"   70"
2019-06-27T16:54:48.902Z,"   70"
2019-06-27T16:59:44.903Z,"   70"
2019-06-27T17:04:41.952Z,"   70"
2019-06-27T17:09:37.920Z,"   70"
2019-06-27T17:14:33.562Z,"   70"
2019-06-27T17:19:30.569Z,"   65"
2019-06-27T17:24:26.277Z,"   65"
2019-06-27T17:29:22.040Z,"   65"
2019-06-27T17:34:18.227Z,"   65"
2019-06-27T17:39:14.095Z,"   60"
2019-06-27T17:44:09.762Z,"   60"
2019-06-27T17:49:05.734Z,"   60"
2019-06-27T17:54:01.365Z,"   60"
2019-06-27T17:58:58.453Z,"   55"
2019-06-27T18:03:53.970Z,"   55"
2019-06-27T18:08:50.105Z,"   55"
2019-06-27T18:13:46.326Z,"   50"
2019-06-27T18:18:43.605Z,"   50"
2019-06-27T18:23:39.198Z,"   50"
2019-06-27T18:28:35.483Z,"   45"
2019-06-27T18:33:31.732Z,"   45"
2019-06-27T18:38:27.314Z,"   40"
2019-06-27T18:43:23.008Z,"   40"
2019-06-27T18:48:19.153Z,"   35"
2019-06-27T18:53:14.978Z,"   35"
2019-06-27T18:58:10.745Z,"   35"
2019-06-27T19:03:06.793Z,"   30"
2019-06-27T19:08:02.497Z,"   25"
2019-06-27T19:12:58.178Z,"   25"
2019-06-27T19:17:54.921Z,"   20"
2019-06-27T19:22:50.772Z,"   15"
2019-06-27T19:27:46.230Z,"   15"
2019-06-27T19:32:42.328Z,"   10"
2019-06-27T19:37:37.866Z,"   10"
2019-06-27T19:42:33.627Z,"    5"
2019-06-27T19:47:30.381Z,"    5"
2019-06-27T19:52:25.662Z,"    0"
2019-06-27T19:57:22.011Z,"    0"
2019-06-27T20:02:17.245Z,"    0"
2019-06-27T20:07:13.074Z,"    0"
2019-06-27T20:12:08.889Z,"    0"
2019-06-27T20:17:04.490Z,"    0"
2019-06-27T20:22:01.215Z,"    0"
2019-06-27T20:26:57.681Z,"    0"
2019-06-27T20:31:52.906Z,"    0"
2019-06-27T20:36:48.748Z,"    0"
2019-06-27T20:41:44.706Z,"    0"
2019-06-27T20:46:40.542Z,"    0"
2019-06-27T20:51:36.763Z,"    0"
2019-06-27T20:56:32.516Z,"    0"
2019-06-27T21:01:31.351Z,"    0"
2019-06-27T21:06:26.663Z,"    0"
2019-06-27T21:11:22.586Z,"    0"
2019-06-27T21:16:18.369Z,"    0"
2019-06-27T21:21:14.216Z,"    0"
2019-06-27T21:26:10.892Z,"    0"
2019-06-27T21:31:06.420Z,"    0"
2019-06-27T21:36:01.862Z,"    0"
2019-06-27T21:40:57.843Z,"    0"
2019-06-27T21:45:53.677Z,"    0"
2019-06-27T21:50:49.318Z,"    0"
2019-06-27T21:55:45.443Z,"    0"
2019-06-27T22:00:41.288Z,"    0"
2019-06-27T22:05:36.742Z,"    0"
2019-06-27T22:10:33.135Z,"    0"
2019-06-27T22:15:29.931Z,"    0"
2019-06-27T22:20:26.393Z,"    0"
2019-06-27T22:25:22.370Z,"    0"
2019-06-27T22:30:17.930Z,"    0"
2019-06-27T22:35:13.868Z,"    0"
2019-06-27T22:40:09.881Z,"    0"
2019-06-27T22:45:07.174Z,"    0"
2019-06-27T22:50:02.772Z,"    0"
2019-06-27T22:54:59.249Z,"    0"
2019-06-27T22:59:55.780Z,"    0"
2019-06-27T23:04:52.773Z,"    0"
2019-06-27T23:09:56.830Z,"    0"
2019-06-27T23:14:47.458Z,"    0"
2019-06-27T23:19:43.899Z,"    0"
2019-06-27T23:24:40.799Z,"    0"
2019-06-27T23:29:36.271Z,"    0"
2019-06-27T23:34:31.862Z,"    0"
2019-06-27T23:39:28.787Z,"    0"
2019-06-27T23:44:24.284Z,"    0"
2019-06-27T23:49:20.196Z,"    0"
2019-06-27T23:54:16.876Z,"    0"
2019-06-27T23:59:12.470Z,"    0"
